Time;durP1;ratioP1;P1;durP2;ratioP2;P2;SDS_P1;SDS_P2;PMS_P1;PMS_P2;Temp;Humidity;BMP_temperature;BMP_pressure;BME280_temperature;BME280_humidity;BME280_pressure;Samples;Min_cycle;Max_cycle;Signal;HPM_P1;HPM_P2
2022/11/08 00:02:29;;;;;;;46.25;24.40;;;;;;;;;;6250833;23;20019;-79
2022/11/08 00:04:54;;;;;;;47.67;23.45;;;;;;;;;;6228821;23;20000;-80
2022/11/08 00:15:37;;;;;;;47.10;23.55;;;;;;;;;;6243669;23;20038;-79
2022/11/08 00:18:06;;;;;;;53.30;24.02;;;;;;;;;;6243832;22;20381;-79
2022/11/08 00:20:31;;;;;;;53.75;24.63;;;;;;;;;;6216786;23;20332;-79
2022/11/08 00:22:56;;;;;;;45.17;23.17;;;;;;;;;;6250823;22;20094;-80
2022/11/08 00:25:22;;;;;;;51.30;24.33;;;;;;;;;;6254658;23;20000;-80
2022/11/08 00:27:47;;;;;;;50.60;24.13;;;;;;;;;;6242442;23;20429;-79
2022/11/08 00:30:13;;;;;;;51.97;24.88;;;;;;;;;;6242405;23;20154;-80
2022/11/08 00:32:38;;;;;;;51.60;24.33;;;;;;;;;;6243564;23;20049;-79
2022/11/08 00:35:04;;;;;;;52.90;24.73;;;;;;;;;;6244073;23;20031;-80
2022/11/08 00:37:30;;;;;;;47.22;23.80;;;;;;;;;;6245552;22;19997;-79
2022/11/08 00:39:55;;;;;;;52.78;25.15;;;;;;;;;;6218878;23;20019;-79
2022/11/08 00:42:21;;;;;;;52.75;24.75;;;;;;;;;;6245507;23;20000;-79
2022/11/08 00:44:46;;;;;;;50.53;23.88;;;;;;;;;;6264130;23;20100;-80
2022/11/08 00:47:12;;;;;;;52.30;23.77;;;;;;;;;;6245165;23;20446;-79
2022/11/08 00:49:37;;;;;;;47.70;24.45;;;;;;;;;;6245437;23;20000;-80
2022/11/08 00:52:03;;;;;;;52.40;24.70;;;;;;;;;;6245434;23;20000;-80
2022/11/08 00:54:31;;;;;;;54.28;25.30;;;;;;;;;;6269446;22;20008;-79
2022/11/08 00:56:57;;;;;;;50.00;23.85;;;;;;;;;;6244477;23;20417;-79
2022/11/08 00:59:22;;;;;;;50.33;26.25;;;;;;;;;;6218825;23;20015;-79
2022/11/08 01:01:48;;;;;;;51.30;27.80;;;;;;;;;;6218742;23;20066;-79
2022/11/08 01:04:14;;;;;;;56.20;28.45;;;;;;;;;;6255446;22;19996;-81
2022/11/08 01:06:40;;;;;;;57.97;27.95;;;;;;;;;;6225579;23;20000;-79
2022/11/08 01:09:05;;;;;;;57.13;28.50;;;;;;;;;;6243820;23;20011;-80
2022/11/08 01:11:32;;;;;;;56.85;29.33;;;;;;;;;;6193393;23;20079;-81
2022/11/08 01:13:58;;;;;;;62.63;30.75;;;;;;;;;;6243869;23;20040;-79
2022/11/08 01:16:25;;;;;;;74.10;33.00;;;;;;;;;;6243493;23;20004;-79
2022/11/08 01:18:55;;;;;;;76.30;32.70;;;;;;;;;;6269034;22;20008;-79
2022/11/08 01:21:20;;;;;;;65.55;33.17;;;;;;;;;;6194982;23;20081;-79
2022/11/08 01:23:46;;;;;;;69.28;32.92;;;;;;;;;;6194202;23;20012;-80
2022/11/08 01:26:16;;;;;;;59.95;30.95;;;;;;;;;;6263122;22;20004;-81
2022/11/08 01:28:42;;;;;;;;;;;;;;;;;;6218793;23;20019;-80
2022/11/08 01:31:12;;;;;;;56.10;28.45;;;;;;;;;;6218481;23;19974;-79
2022/11/08 01:33:37;;;;;;;63.92;30.65;;;;;;;;;;6243807;23;20075;-79
2022/11/08 01:36:10;;;;;;;57.75;29.23;;;;;;;;;;6244540;23;20343;-80
2022/11/08 01:38:35;;;;;;;61.67;28.75;;;;;;;;;;6220540;23;20110;-80
2022/11/08 01:41:01;;;;;;;59.22;29.63;;;;;;;;;;6245505;22;20088;-79
2022/11/08 01:43:30;;;;;;;60.75;28.73;;;;;;;;;;6246216;23;20004;-80
2022/11/08 01:46:17;;;;;;;59.75;28.58;;;;;;;;;;6263180;22;19984;-79
2022/11/08 01:48:47;;;;;;;59.80;27.85;;;;;;;;;;6248112;22;20012;-80
2022/11/08 01:51:15;;;;;;;62.35;27.88;;;;;;;;;;6246537;23;20061;-80
2022/11/08 01:53:42;;;;;;;58.40;28.38;;;;;;;;;;6234971;22;20008;-79
2022/11/08 01:56:08;;;;;;;55.17;27.92;;;;;;;;;;6271476;22;20004;-78
2022/11/08 01:58:36;;;;;;;53.38;27.30;;;;;;;;;;6243936;23;19992;-81
2022/11/08 02:03:50;;;;;;;53.05;26.70;;;;;;;;;;6271961;22;20018;-79
2022/11/08 02:06:16;;;;;;;47.63;25.55;;;;;;;;;;6262917;23;20004;-79
2022/11/08 02:08:42;;;;;;;49.10;25.60;;;;;;;;;;6219610;23;20024;-80
2022/11/08 02:11:08;;;;;;;52.30;24.75;;;;;;;;;;6218070;23;20073;-79
2022/11/08 02:13:35;;;;;;;48.42;24.48;;;;;;;;;;6243421;23;20023;-79
2022/11/08 02:16:00;;;;;;;52.75;24.75;;;;;;;;;;6243513;23;20089;-78
2022/11/08 02:18:27;;;;;;;50.72;24.67;;;;;;;;;;6218773;23;20000;-79
2022/11/08 02:21:08;;;;;;;50.30;24.10;;;;;;;;;;6251318;23;20052;-79
2022/11/08 02:23:51;;;;;;;46.72;24.05;;;;;;;;;;6245679;22;20083;-80
2022/11/08 02:26:18;;;;;;;53.17;24.98;;;;;;;;;;6255604;22;20012;-79
2022/11/08 02:28:45;;;;;;;55.53;25.80;;;;;;;;;;6224956;23;20008;-79
2022/11/08 02:31:11;;;;;;;50.30;24.35;;;;;;;;;;6242997;23;20358;-80
2022/11/08 02:33:37;;;;;;;47.97;23.75;;;;;;;;;;6242894;23;20347;-80
2022/11/08 02:36:03;;;;;;;45.05;22.73;;;;;;;;;;6244540;22;20000;-79
2022/11/08 02:38:28;;;;;;;47.00;22.55;;;;;;;;;;6217460;23;20114;-79
2022/11/08 02:41:14;;;;;;;45.50;22.60;;;;;;;;;;6242964;23;20004;-80
2022/11/08 02:43:39;;;;;;;45.67;22.77;;;;;;;;;;6242563;23;20103;-79
2022/11/08 02:46:05;;;;;;;51.75;24.27;;;;;;;;;;6249543;23;19992;-80
2022/11/08 02:48:30;;;;;;;42.13;22.90;;;;;;;;;;6252517;22;20011;-81
2022/11/08 02:50:56;;;;;;;42.08;23.02;;;;;;;;;;6193049;23;20015;-80
2022/11/08 02:53:21;;;;;;;51.28;23.83;;;;;;;;;;6218128;23;20411;-80
2022/11/08 02:55:47;;;;;;;49.95;24.63;;;;;;;;;;6217832;23;20091;-80
2022/11/08 02:58:12;;;;;;;53.38;24.45;;;;;;;;;;6192372;23;20004;-81
2022/11/08 03:00:38;;;;;;;46.05;24.35;;;;;;;;;;6242472;23;20040;-81
2022/11/08 03:03:04;;;;;;;47.83;24.17;;;;;;;;;;6242650;23;20009;-80
2022/11/08 03:05:29;;;;;;;53.35;25.20;;;;;;;;;;6242952;23;20008;-80
2022/11/08 03:07:55;;;;;;;59.67;25.30;;;;;;;;;;6263061;22;20015;-80
2022/11/08 03:10:22;;;;;;;53.42;27.38;;;;;;;;;;6217280;23;20087;-80
2022/11/08 03:13:01;;;;;;;62.20;26.30;;;;;;;;;;6243053;23;20083;-80
2022/11/08 03:15:27;;;;;;;56.58;27.75;;;;;;;;;;6244301;22;20008;-80
2022/11/08 03:17:58;;;;;;;59.25;28.83;;;;;;;;;;6243176;23;20000;-81
2022/11/08 03:20:24;;;;;;;72.40;27.35;;;;;;;;;;6217666;23;20062;-80
2022/11/08 03:22:57;;;;;;;58.53;28.05;;;;;;;;;;6217366;23;19996;-80
2022/11/08 03:25:22;;;;;;;57.45;28.17;;;;;;;;;;6192638;23;20052;-80
2022/11/08 03:27:48;;;;;;;60.85;27.35;;;;;;;;;;6255041;22;19989;-80
2022/11/08 03:30:13;;;;;;;66.57;30.25;;;;;;;;;;6249725;22;20008;-80
2022/11/08 03:32:39;;;;;;;72.90;30.10;;;;;;;;;;6217523;23;20006;-80
2022/11/08 03:35:05;;;;;;;75.60;32.63;;;;;;;;;;6243999;23;20035;-81
2022/11/08 03:37:33;;;;;;;77.45;32.38;;;;;;;;;;6192556;23;20007;-80
2022/11/08 03:39:59;;;;;;;78.07;32.45;;;;;;;;;;6216799;23;20008;-81
2022/11/08 03:42:24;;;;;;;79.32;32.45;;;;;;;;;;6217858;23;20024;-81
2022/11/08 03:44:50;;;;;;;80.88;33.90;;;;;;;;;;6242277;23;20000;-80
2022/11/08 03:47:15;;;;;;;79.50;33.33;;;;;;;;;;6242597;23;20066;-80
2022/11/08 03:49:41;;;;;;;84.60;33.10;;;;;;;;;;6269552;22;20011;-79
2022/11/08 03:52:06;;;;;;;69.60;31.42;;;;;;;;;;6244002;23;20007;-80
2022/11/08 03:54:32;;;;;;;79.93;32.67;;;;;;;;;;6242278;23;20008;-80
2022/11/08 03:56:57;;;;;;;73.88;30.48;;;;;;;;;;6242206;23;19999;-80
2022/11/08 03:59:23;;;;;;;74.88;31.42;;;;;;;;;;6242095;23;20004;-80
2022/11/08 04:01:48;;;;;;;76.80;31.77;;;;;;;;;;6217059;23;20007;-80
2022/11/08 04:04:14;;;;;;;79.93;31.95;;;;;;;;;;6244045;23;20024;-80
2022/11/08 04:06:42;;;;;;;70.53;31.27;;;;;;;;;;6242580;23;20432;-80
2022/11/08 04:09:07;;;;;;;72.30;30.70;;;;;;;;;;6219729;23;20008;-79
2022/11/08 04:17:01;;;;;;;74.45;30.33;;;;;;;;;;6244465;23;20069;-80
2022/11/08 04:22:10;;;;;;;61.25;27.55;;;;;;;;;;6223373;23;20450;-80
2022/11/08 04:24:39;;;;;;;67.72;27.58;;;;;;;;;;6245537;23;20004;-81
2022/11/08 04:27:04;;;;;;;73.45;27.52;;;;;;;;;;6244469;23;20007;-80
2022/11/08 04:29:30;;;;;;;66.15;26.27;;;;;;;;;;6200198;23;20000;-80
2022/11/08 04:32:03;;;;;;;69.18;27.35;;;;;;;;;;6194657;23;20008;-80
2022/11/08 04:34:29;;;;;;;71.40;27.30;;;;;;;;;;6219971;23;20004;-81
2022/11/08 04:36:54;;;;;;;57.47;26.70;;;;;;;;;;6218720;23;20007;-81
2022/11/08 04:39:20;;;;;;;67.15;26.65;;;;;;;;;;6245139;23;20039;-81
2022/11/08 04:41:45;;;;;;;65.40;27.00;;;;;;;;;;6245707;23;20031;-81
2022/11/08 04:44:12;;;;;;;71.60;26.42;;;;;;;;;;6245775;23;20007;-80
2022/11/08 04:46:38;;;;;;;65.03;27.27;;;;;;;;;;6244026;23;20004;-81
2022/11/08 04:49:03;;;;;;;65.63;26.42;;;;;;;;;;6262303;22;20002;-80
2022/11/08 04:51:32;;;;;;;61.97;26.27;;;;;;;;;;6242592;23;20015;-82
2022/11/08 04:53:59;;;;;;;71.13;29.23;;;;;;;;;;6244736;23;20275;-80
2022/11/08 04:56:25;;;;;;;81.85;32.58;;;;;;;;;;6218709;23;20012;-80
2022/11/08 04:58:58;;;;;;;80.97;32.33;;;;;;;;;;6219084;23;20049;-81
2022/11/08 05:01:25;;;;;;;86.13;32.95;;;;;;;;;;6219195;23;20011;-80
2022/11/08 05:03:51;;;;;;;85.28;33.42;;;;;;;;;;6193732;23;20043;-81
2022/11/08 05:06:32;;;;;;;83.07;33.30;;;;;;;;;;6243856;23;20394;-81
2022/11/08 05:08:58;;;;;;;90.28;33.83;;;;;;;;;;6231365;23;20000;-83
2022/11/08 05:11:24;;;;;;;81.70;33.55;;;;;;;;;;6265556;22;20269;-81
2022/11/08 05:13:50;;;;;;;81.00;33.40;;;;;;;;;;6245851;22;19996;-77
2022/11/08 05:16:34;;;;;;;84.47;32.75;;;;;;;;;;6245485;22;20427;-76
2022/11/08 05:19:00;;;;;;;81.38;34.05;;;;;;;;;;6243728;23;20657;-76
2022/11/08 05:24:11;;;;;;;79.75;33.72;;;;;;;;;;6245311;23;20026;-77
2022/11/08 05:26:37;;;;;;;83.38;33.03;;;;;;;;;;6245166;22;20020;-76
2022/11/08 05:29:03;;;;;;;86.68;33.78;;;;;;;;;;6244584;22;20419;-76
2022/11/08 05:31:29;;;;;;;83.45;32.53;;;;;;;;;;6252894;22;20028;-77
2022/11/08 05:33:54;;;;;;;71.53;30.10;;;;;;;;;;6245161;23;20482;-75
2022/11/08 05:36:20;;;;;;;71.97;29.25;;;;;;;;;;6245578;23;20000;-76
2022/11/08 05:38:45;;;;;;;69.47;29.95;;;;;;;;;;6242559;23;20012;-76
2022/11/08 05:41:16;;;;;;;63.83;28.35;;;;;;;;;;6243129;23;20056;-75
2022/11/08 05:43:42;;;;;;;60.97;27.50;;;;;;;;;;6244697;22;20000;-78
2022/11/08 05:46:07;;;;;;;57.63;26.30;;;;;;;;;;6239938;23;20391;-76
2022/11/08 05:48:33;;;;;;;54.15;26.13;;;;;;;;;;6242573;22;20000;-75
2022/11/08 05:50:59;;;;;;;54.58;25.15;;;;;;;;;;6241243;23;20067;-74
2022/11/08 05:53:27;;;;;;;49.22;24.42;;;;;;;;;;6243591;22;20340;-79
2022/11/08 05:56:01;;;;;;;50.22;23.67;;;;;;;;;;6244070;23;20451;-80
2022/11/08 05:58:30;;;;;;;45.85;23.02;;;;;;;;;;6245491;23;20000;-78
2022/11/08 06:01:05;;;;;;;46.08;21.65;;;;;;;;;;6243353;22;20058;-78
2022/11/08 06:03:31;;;;;;;44.60;22.33;;;;;;;;;;6221860;23;20004;-80
2022/11/08 06:06:15;;;;;;;45.20;23.52;;;;;;;;;;6246963;23;20010;-78
2022/11/08 06:08:44;;;;;;;56.13;24.25;;;;;;;;;;6245652;23;20483;-77
2022/11/08 06:11:11;;;;;;;45.80;23.65;;;;;;;;;;6248465;23;20008;-77
2022/11/08 06:13:38;;;;;;;42.58;23.52;;;;;;;;;;6250361;23;20004;-78
2022/11/08 06:16:05;;;;;;;47.25;23.33;;;;;;;;;;6246527;22;20343;-77
2022/11/08 06:18:42;;;;;;;45.15;22.80;;;;;;;;;;6246628;23;20095;-77
2022/11/08 06:21:14;;;;;;;47.05;21.85;;;;;;;;;;6242329;23;20603;-77
2022/11/08 06:23:43;;;;;;;46.63;23.05;;;;;;;;;;6224328;23;20008;-77
2022/11/08 06:26:09;;;;;;;48.77;24.93;;;;;;;;;;6222783;23;20011;-78
2022/11/08 06:28:35;;;;;;;45.58;22.10;;;;;;;;;;6250554;22;20008;-79
2022/11/08 06:31:02;;;;;;;49.53;23.00;;;;;;;;;;6246584;23;20007;-80
2022/11/08 06:33:49;;;;;;;42.47;20.88;;;;;;;;;;6253392;23;20004;-78
2022/11/08 06:36:15;;;;;;;40.78;21.13;;;;;;;;;;6233892;23;20004;-79
2022/11/08 06:39:10;;;;;;;41.58;21.40;;;;;;;;;;6257388;23;20016;-79
2022/11/08 06:41:36;;;;;;;45.75;20.70;;;;;;;;;;6264117;23;20055;-77
2022/11/08 06:44:02;;;;;;;38.05;20.35;;;;;;;;;;6234256;23;20008;-80
2022/11/08 06:46:28;;;;;;;46.22;21.30;;;;;;;;;;6255017;23;20420;-79
2022/11/08 06:48:53;;;;;;;36.03;18.92;;;;;;;;;;6226125;23;20041;-80
2022/11/08 06:51:43;;;;;;;38.13;20.35;;;;;;;;;;6246521;22;19996;-78
2022/11/08 06:54:16;;;;;;;42.13;20.02;;;;;;;;;;6218545;23;20062;-79
2022/11/08 06:56:41;;;;;;;37.53;19.63;;;;;;;;;;6218115;23;20019;-77
2022/11/08 06:59:08;;;;;;;40.28;21.58;;;;;;;;;;6219546;23;20004;-78
2022/11/08 07:01:34;;;;;;;39.40;20.60;;;;;;;;;;6217025;23;20000;-81
2022/11/08 07:04:02;;;;;;;40.00;22.20;;;;;;;;;;6239956;23;20038;-78
2022/11/08 07:06:29;;;;;;;39.88;21.35;;;;;;;;;;6239912;23;20000;-78
2022/11/08 07:08:55;;;;;;;39.33;21.10;;;;;;;;;;6242995;22;20071;-79
2022/11/08 07:11:20;;;;;;;41.35;22.05;;;;;;;;;;6247303;23;20007;-78
2022/11/08 07:13:46;;;;;;;43.95;21.20;;;;;;;;;;6240993;23;20008;-76
2022/11/08 07:16:12;;;;;;;43.30;21.63;;;;;;;;;;6238346;22;20059;-76
2022/11/08 07:18:37;;;;;;;43.60;21.23;;;;;;;;;;6236600;23;20008;-77
2022/11/08 07:21:03;;;;;;;40.78;20.13;;;;;;;;;;6240730;22;20051;-77
2022/11/08 07:23:29;;;;;;;37.78;19.45;;;;;;;;;;6236431;23;20008;-78
2022/11/08 07:25:55;;;;;;;40.03;20.15;;;;;;;;;;6241998;23;20019;-77
2022/11/08 07:28:20;;;;;;;37.42;20.27;;;;;;;;;;6266779;22;20090;-76
2022/11/08 07:30:46;;;;;;;41.38;20.70;;;;;;;;;;6245166;23;20585;-77
2022/11/08 07:33:12;;;;;;;45.50;20.83;;;;;;;;;;6217412;23;20063;-87
2022/11/08 07:39:07;;;;;;;45.70;22.10;;;;;;;;;;6213726;23;20323;-82
2022/11/08 07:41:37;;;;;;;41.72;21.73;;;;;;;;;;6214116;23;20004;-80
2022/11/08 07:44:03;;;;;;;36.08;20.20;;;;;;;;;;6217353;23;20363;-79
2022/11/08 07:46:29;;;;;;;38.05;21.38;;;;;;;;;;6222353;23;20033;-79
2022/11/08 07:48:55;;;;;;;38.75;20.98;;;;;;;;;;6183655;23;20407;-80
2022/11/08 07:51:23;;;;;;;38.90;21.23;;;;;;;;;;6164378;23;20035;-82
2022/11/08 07:53:49;;;;;;;40.15;20.45;;;;;;;;;;6184865;23;20004;-79
2022/11/08 07:56:15;;;;;;;35.33;19.13;;;;;;;;;;6211444;23;20008;-80
2022/11/08 07:58:42;;;;;;;38.58;19.60;;;;;;;;;;6185674;23;20081;-80
2022/11/08 08:01:08;;;;;;;33.22;17.95;;;;;;;;;;6210048;23;20009;-81
2022/11/08 08:03:34;;;;;;;33.67;17.13;;;;;;;;;;6191789;23;20000;-82
2022/11/08 08:06:06;;;;;;;26.13;16.30;;;;;;;;;;6193691;23;20510;-82
2022/11/08 08:08:31;;;;;;;29.30;17.08;;;;;;;;;;6186888;23;20005;-81
2022/11/08 08:11:00;;;;;;;27.20;15.82;;;;;;;;;;6214421;23;20012;-84
2022/11/08 08:13:28;;;;;;;27.83;16.55;;;;;;;;;;6166026;23;20031;-81
2022/11/08 08:16:05;;;;;;;26.50;15.68;;;;;;;;;;6187751;23;20005;-82
2022/11/08 08:18:33;;;;;;;25.42;15.45;;;;;;;;;;6181888;23;20004;-81
2022/11/08 08:21:18;;;;;;;28.13;16.80;;;;;;;;;;6159060;23;20024;-80
2022/11/08 08:23:43;;;;;;;30.60;17.05;;;;;;;;;;6212845;23;20011;-80
2022/11/08 08:26:15;;;;;;;32.92;16.80;;;;;;;;;;6214235;23;20039;-81
2022/11/08 08:28:40;;;;;;;35.00;18.10;;;;;;;;;;6161225;23;20004;-79
2022/11/08 08:31:09;;;;;;;30.38;19.50;;;;;;;;;;6185391;23;20008;-81
2022/11/08 08:33:36;;;;;;;27.75;17.85;;;;;;;;;;6164365;23;20031;-82
2022/11/08 08:36:04;;;;;;;32.20;18.15;;;;;;;;;;6211999;23;20012;-81
2022/11/08 08:38:41;;;;;;;28.52;17.30;;;;;;;;;;6237442;23;20062;-79
2022/11/08 08:41:07;;;;;;;32.70;18.65;;;;;;;;;;6243291;23;20267;-78
2022/11/08 08:43:37;;;;;;;29.40;18.05;;;;;;;;;;6248301;23;20004;-79
2022/11/08 08:46:05;;;;;;;33.28;19.10;;;;;;;;;;6243959;23;20027;-79
2022/11/08 08:48:30;;;;;;;38.88;17.90;;;;;;;;;;6238691;23;20019;-79
2022/11/08 08:50:56;;;;;;;31.10;17.25;;;;;;;;;;6240645;23;20008;-80
2022/11/08 08:53:21;;;;;;;31.77;19.02;;;;;;;;;;6214773;23;20040;-79
2022/11/08 08:55:52;;;;;;;33.47;18.50;;;;;;;;;;6239152;23;20015;-81
2022/11/08 08:58:19;;;;;;;34.22;18.13;;;;;;;;;;6239565;23;20028;-82
2022/11/08 09:00:50;;;;;;;28.38;17.05;;;;;;;;;;6216185;23;20019;-81
2022/11/08 09:03:19;;;;;;;33.00;17.40;;;;;;;;;;6223562;23;20008;-78
2022/11/08 09:05:52;;;;;;;28.90;16.48;;;;;;;;;;6246197;23;20076;-80
2022/11/08 09:08:18;;;;;;;22.20;14.88;;;;;;;;;;6242463;23;20304;-81
2022/11/08 09:10:44;;;;;;;26.02;14.85;;;;;;;;;;6216957;23;20056;-79
2022/11/08 09:13:10;;;;;;;21.17;13.82;;;;;;;;;;6217968;23;20007;-79
2022/11/08 09:15:38;;;;;;;23.42;14.82;;;;;;;;;;6242484;23;20023;-80
2022/11/08 09:18:03;;;;;;;21.48;14.38;;;;;;;;;;6246118;23;20000;-81
2022/11/08 09:20:29;;;;;;;31.80;14.68;;;;;;;;;;6216957;23;20090;-80
2022/11/08 09:22:57;;;;;;;22.65;14.63;;;;;;;;;;6251055;23;20320;-81
2022/11/08 09:25:23;;;;;;;23.90;14.40;;;;;;;;;;6192527;23;20394;-79
2022/11/08 09:27:48;;;;;;;24.48;14.70;;;;;;;;;;6245341;23;20004;-79
2022/11/08 09:30:14;;;;;;;22.77;14.35;;;;;;;;;;6245202;23;20024;-79
2022/11/08 09:32:39;;;;;;;24.77;14.93;;;;;;;;;;6219809;23;20008;-76
2022/11/08 09:35:05;;;;;;;26.58;14.93;;;;;;;;;;6246058;23;20000;-80
2022/11/08 09:37:33;;;;;;;26.45;16.20;;;;;;;;;;6244808;23;20014;-79
2022/11/08 09:39:58;;;;;;;27.35;16.10;;;;;;;;;;6244902;23;20071;-80
2022/11/08 09:42:29;;;;;;;27.00;15.73;;;;;;;;;;6200427;23;20031;-79
2022/11/08 09:45:33;;;;;;;24.95;15.40;;;;;;;;;;6219006;23;20011;-79
2022/11/08 09:48:00;;;;;;;27.42;15.23;;;;;;;;;;6177642;23;20032;-80
2022/11/08 09:50:38;;;;;;;22.73;14.82;;;;;;;;;;6217522;23;20058;-79
2022/11/08 09:53:37;;;;;;;25.38;14.55;;;;;;;;;;6216363;23;20334;-80
2022/11/08 09:56:25;;;;;;;23.67;15.25;;;;;;;;;;6241877;23;20058;-79
2022/11/08 09:58:54;;;;;;;30.13;16.35;;;;;;;;;;6214780;23;20004;-79
2022/11/08 10:01:20;;;;;;;25.67;16.07;;;;;;;;;;6216972;23;20071;-80
2022/11/08 10:03:51;;;;;;;23.80;14.88;;;;;;;;;;6242162;23;20250;-77
2022/11/08 10:06:38;;;;;;;27.45;15.50;;;;;;;;;;6190379;23;20023;-79
2022/11/08 10:09:26;;;;;;;28.98;15.07;;;;;;;;;;6192799;23;20004;-80
2022/11/08 10:12:14;;;;;;;23.38;14.70;;;;;;;;;;6192767;23;20427;-79
2022/11/08 10:14:59;;;;;;;26.20;15.32;;;;;;;;;;6229183;23;20012;-79
2022/11/08 10:17:38;;;;;;;25.48;14.02;;;;;;;;;;6223596;23;20003;-79
2022/11/08 10:20:26;;;;;;;25.02;15.52;;;;;;;;;;6218108;23;20426;-79
2022/11/08 10:23:04;;;;;;;26.08;15.35;;;;;;;;;;6218909;23;20113;-80
2022/11/08 10:25:42;;;;;;;25.30;14.80;;;;;;;;;;6218637;23;20065;-79
2022/11/08 10:28:12;;;;;;;26.48;15.45;;;;;;;;;;6221654;23;20307;-79
2022/11/08 10:30:39;;;;;;;26.58;14.75;;;;;;;;;;6219543;23;20075;-78
2022/11/08 10:33:16;;;;;;;22.50;14.48;;;;;;;;;;6242308;23;20003;-79
2022/11/08 10:35:46;;;;;;;20.27;12.85;;;;;;;;;;6196620;23;20004;-80
2022/11/08 10:38:29;;;;;;;16.40;11.32;;;;;;;;;;6223951;23;20008;-80
2022/11/08 10:41:24;;;;;;;16.23;10.85;;;;;;;;;;6248759;23;20034;-81
2022/11/08 10:44:01;;;;;;;17.10;10.45;;;;;;;;;;6245066;23;20032;-78
2022/11/08 10:46:43;;;;;;;16.08;10.95;;;;;;;;;;6240541;23;20010;-76
2022/11/08 10:49:24;;;;;;;16.30;10.68;;;;;;;;;;6189784;23;20012;-76
2022/11/08 10:52:17;;;;;;;19.67;10.70;;;;;;;;;;6244516;23;20407;-80
2022/11/08 10:54:46;;;;;;;14.57;9.30;;;;;;;;;;6204510;23;20062;-79
2022/11/08 10:57:33;;;;;;;16.13;10.05;;;;;;;;;;6242328;23;20265;-81
2022/11/08 11:00:21;;;;;;;14.90;9.68;;;;;;;;;;6218625;23;20019;-79
2022/11/08 11:02:55;;;;;;;14.73;9.00;;;;;;;;;;6243100;23;20000;-80
2022/11/08 11:05:35;;;;;;;15.98;8.95;;;;;;;;;;6241184;23;20146;-79
2022/11/08 11:08:11;;;;;;;19.35;10.07;;;;;;;;;;6217602;23;20014;-78
2022/11/08 11:10:45;;;;;;;15.13;9.18;;;;;;;;;;6245262;23;20030;-79
2022/11/08 11:13:17;;;;;;;18.23;10.13;;;;;;;;;;6223896;23;20447;-79
2022/11/08 11:15:55;;;;;;;18.73;10.15;;;;;;;;;;6216826;23;20000;-79
2022/11/08 11:18:30;;;;;;;21.02;9.82;;;;;;;;;;6222925;23;20015;-77
2022/11/08 11:21:23;;;;;;;15.38;9.15;;;;;;;;;;6218654;23;20083;-77
2022/11/08 11:23:50;;;;;;;16.70;9.27;;;;;;;;;;6194832;23;20008;-79
2022/11/08 11:26:30;;;;;;;22.13;9.30;;;;;;;;;;6242884;23;20381;-78
2022/11/08 11:29:08;;;;;;;15.63;9.52;;;;;;;;;;6218687;23;20418;-79
2022/11/08 11:31:41;;;;;;;12.70;8.43;;;;;;;;;;6245003;23;20018;-77
2022/11/08 11:34:15;;;;;;;19.20;8.55;;;;;;;;;;6220696;23;20410;-78
2022/11/08 11:37:09;;;;;;;16.15;8.52;;;;;;;;;;6244386;23;20004;-76
2022/11/08 11:40:07;;;;;;;17.48;9.20;;;;;;;;;;6213693;23;20039;-77
2022/11/08 11:43:03;;;;;;;14.00;8.45;;;;;;;;;;6217679;23;20004;-77
2022/11/08 11:45:35;;;;;;;16.00;8.27;;;;;;;;;;6241781;23;20074;-78
2022/11/08 11:48:03;;;;;;;14.52;8.40;;;;;;;;;;6216949;23;20430;-76
2022/11/08 11:50:38;;;;;;;12.27;7.72;;;;;;;;;;6240182;23;20011;-75
2022/11/08 11:53:13;;;;;;;13.30;8.63;;;;;;;;;;6241016;23;20103;-77
2022/11/08 11:56:04;;;;;;;10.82;7.97;;;;;;;;;;6214745;23;20004;-77
2022/11/08 11:58:45;;;;;;;14.68;8.35;;;;;;;;;;6193854;23;20004;-79
2022/11/08 12:01:35;;;;;;;12.93;8.45;;;;;;;;;;6215985;23;20035;-77
2022/11/08 12:04:28;;;;;;;11.98;9.18;;;;;;;;;;6243615;23;20054;-76
2022/11/08 12:07:00;;;;;;;13.68;8.75;;;;;;;;;;6243515;23;20079;-77
2022/11/08 12:10:08;;;;;;;14.13;8.57;;;;;;;;;;6244177;23;20094;-77
2022/11/08 12:13:10;;;;;;;14.18;8.73;;;;;;;;;;6244174;23;20004;-77
2022/11/08 12:15:51;;;;;;;13.05;9.13;;;;;;;;;;6245231;23;20312;-78
2022/11/08 12:18:33;;;;;;;17.98;9.57;;;;;;;;;;6247099;23;20028;-77
2022/11/08 12:21:14;;;;;;;12.45;8.95;;;;;;;;;;6223011;23;20018;-74
2022/11/08 12:23:49;;;;;;;12.75;9.15;;;;;;;;;;6221734;23;20004;-80
2022/11/08 12:26:32;;;;;;;14.63;9.07;;;;;;;;;;6247884;23;20005;-80
2022/11/08 12:32:25;;;;;;;15.13;9.40;;;;;;;;;;6247730;22;20073;-78
2022/11/08 12:35:18;;;;;;;12.63;8.27;;;;;;;;;;6246319;23;20008;-78
2022/11/08 12:37:59;;;;;;;15.43;9.25;;;;;;;;;;6195285;23;20011;-78
2022/11/08 12:40:46;;;;;;;14.32;9.60;;;;;;;;;;6245187;23;20026;-78
2022/11/08 12:43:20;;;;;;;15.20;9.82;;;;;;;;;;6217352;23;20050;-78
2022/11/08 12:45:51;;;;;;;18.23;9.68;;;;;;;;;;6219788;23;20548;-78
2022/11/08 12:48:22;;;;;;;14.32;10.13;;;;;;;;;;6218457;23;20004;-77
2022/11/08 12:51:12;;;;;;;15.00;10.00;;;;;;;;;;6214098;23;20146;-77
2022/11/08 12:53:52;;;;;;;27.48;10.65;;;;;;;;;;6187700;23;20261;-78
2022/11/08 12:56:23;;;;;;;14.25;10.32;;;;;;;;;;6215013;23;20025;-78
2022/11/08 12:58:51;;;;;;;19.08;11.18;;;;;;;;;;6190827;23;20012;-78
2022/11/08 13:01:18;;;;;;;19.90;10.68;;;;;;;;;;6165216;23;20450;-78
2022/11/08 13:03:48;;;;;;;17.25;10.32;;;;;;;;;;6215994;23;20091;-78
2022/11/08 13:06:19;;;;;;;16.40;10.40;;;;;;;;;;6245671;23;20276;-78
2022/11/08 13:09:15;;;;;;;14.60;10.20;;;;;;;;;;6245096;23;20010;-78
2022/11/08 13:11:45;;;;;;;22.25;11.27;;;;;;;;;;6223119;23;20007;-78
2022/11/08 13:14:15;;;;;;;15.50;9.63;;;;;;;;;;6248279;23;20000;-83
2022/11/08 13:16:45;;;;;;;15.57;10.50;;;;;;;;;;6175344;23;20613;-80
2022/11/08 13:19:49;;;;;;;19.83;10.82;;;;;;;;;;6170550;23;20008;-81
2022/11/08 13:22:32;;;;;;;16.20;9.63;;;;;;;;;;6223606;23;20004;-79
2022/11/08 13:25:10;;;;;;;15.05;9.68;;;;;;;;;;6246731;23;20000;-78
2022/11/08 13:27:39;;;;;;;19.33;9.25;;;;;;;;;;6222106;23;20027;-79
2022/11/08 13:30:11;;;;;;;13.05;9.27;;;;;;;;;;6191293;23;20007;-78
2022/11/08 13:32:42;;;;;;;18.15;9.48;;;;;;;;;;6219712;23;20007;-78
2022/11/08 13:35:13;;;;;;;15.68;8.57;;;;;;;;;;6227643;23;20435;-79
2022/11/08 13:37:47;;;;;;;16.13;8.77;;;;;;;;;;6218121;23;20075;-79
2022/11/08 13:40:22;;;;;;;17.02;9.50;;;;;;;;;;6217659;23;20032;-82
2022/11/08 13:42:58;;;;;;;11.77;8.48;;;;;;;;;;6168715;23;20427;-81
2022/11/08 13:45:29;;;;;;;13.88;9.13;;;;;;;;;;6195364;23;20023;-79
2022/11/08 13:47:57;;;;;;;15.10;9.38;;;;;;;;;;6188745;23;20011;-80
2022/11/08 13:50:32;;;;;;;17.15;10.70;;;;;;;;;;6189299;23;20007;-80
2022/11/08 13:53:19;;;;;;;14.10;9.20;;;;;;;;;;6217770;23;20005;-79
2022/11/08 13:55:45;;;;;;;14.63;10.32;;;;;;;;;;6216312;23;19997;-79
2022/11/08 13:58:36;;;;;;;23.30;12.25;;;;;;;;;;6165811;23;20009;-78
2022/11/08 14:01:05;;;;;;;15.25;9.55;;;;;;;;;;6197079;23;20036;-80
2022/11/08 14:03:34;;;;;;;15.82;9.60;;;;;;;;;;6196764;23;20498;-80
2022/11/08 14:06:04;;;;;;;15.80;9.40;;;;;;;;;;6230655;23;20431;-78
2022/11/08 14:08:40;;;;;;;15.73;9.27;;;;;;;;;;6205914;23;20015;-78
2022/11/08 14:11:24;;;;;;;15.95;9.55;;;;;;;;;;6204186;23;20024;-79
2022/11/08 14:14:04;;;;;;;14.93;9.73;;;;;;;;;;6225928;23;20016;-78
2022/11/08 14:16:33;;;;;;;18.25;9.52;;;;;;;;;;6190087;23;20001;-78
2022/11/08 14:19:31;;;;;;;12.63;9.27;;;;;;;;;;6164253;23;20424;-78
2022/11/08 14:21:58;;;;;;;15.73;9.48;;;;;;;;;;6140355;23;20501;-79
2022/11/08 14:24:25;;;;;;;16.00;9.50;;;;;;;;;;6162796;23;20040;-78
2022/11/08 14:26:51;;;;;;;15.65;9.77;;;;;;;;;;6187638;23;20001;-78
2022/11/08 14:29:17;;;;;;;16.42;10.10;;;;;;;;;;6214684;23;20095;-79
2022/11/08 14:31:43;;;;;;;16.13;10.10;;;;;;;;;;6138341;23;20016;-78
2022/11/08 14:34:35;;;;;;;24.17;11.52;;;;;;;;;;6188333;23;20075;-79
2022/11/08 14:37:00;;;;;;;17.92;10.40;;;;;;;;;;6189674;23;20012;-78
2022/11/08 14:39:35;;;;;;;23.52;11.57;;;;;;;;;;6187604;23;20400;-79
2022/11/08 14:42:02;;;;;;;18.13;11.13;;;;;;;;;;6162878;23;20004;-79
2022/11/08 14:44:28;;;;;;;23.55;11.68;;;;;;;;;;6163675;23;20003;-78
2022/11/08 14:46:53;;;;;;;19.23;11.43;;;;;;;;;;6162828;23;20005;-79
2022/11/08 14:49:32;;;;;;;24.65;11.85;;;;;;;;;;6187487;23;20001;-79
2022/11/08 14:52:18;;;;;;;20.40;11.27;;;;;;;;;;6187489;23;20005;-79
2022/11/08 14:54:47;;;;;;;20.15;11.77;;;;;;;;;;6138341;23;20411;-78
2022/11/08 14:57:38;;;;;;;22.90;11.98;;;;;;;;;;6216573;23;20348;-77
2022/11/08 15:00:14;;;;;;;22.15;12.10;;;;;;;;;;6214126;23;20008;-78
2022/11/08 15:02:40;;;;;;;25.52;12.18;;;;;;;;;;6163100;23;20008;-79
2022/11/08 15:05:24;;;;;;;24.33;12.10;;;;;;;;;;6188061;23;20003;-79
2022/11/08 15:07:49;;;;;;;24.98;13.27;;;;;;;;;;6138728;23;20016;-78
2022/11/08 15:10:15;;;;;;;29.35;13.90;;;;;;;;;;6187562;23;19993;-79
2022/11/08 15:12:41;;;;;;;28.58;14.27;;;;;;;;;;6213737;23;20398;-78